Tiempo atmosférico en la estación meteorológica de Jumilla, Murcia (505 m.)



Fecha
DESCASC
Temp. máxima en grados centígrados (hora)
DESCASC
Temp. mínima en grados centígrados (hora)
DESCASC
Temp. media en grados centígrados
DESCASC
Racha de viento máxima en m/sg (hora)
DESCASC
Velocidad máxima media en intervalos de 10 minutos(hora)
DESCASC
Precipitaciones diarias en mm
DESCASC
Precipitaciones de 00:00 a 06:00 en mm
DESCASC
Precipitaciones de 06:00 a 12:00 en mm
DESCASC
Precipitaciones de 12:00 a 18:00 en mm
DESCASC
Precipitaciones de 18:00 a 24:00 en mm
DESCASC
18-04-2019 13.3 (00:00) 8.7 (23:00) 11 10.28 (06:10) 6.11 (07:50) 4 0 0 3 1
17-04-2019 21.2 (15:50) 11.5 (05:40) 16.4 10 (14:10) 6.94 (18:30) 0 0 0 0 0
16-04-2019 24.3 (17:00) 9.9 (00:00) 17.1 10.83 (18:00) 6.67 (18:20) 0 0 0 0 0
15-04-2019 25 (14:00) 11.4 (00:00) 18.2 9.17 (14:10) 5.28 (18:00) 0 0 0 0 0
14-04-2019 26.3 (17:20) 5.9 (00:00) 16.1 8.33 (18:10) 3.89 (18:10) 0 0 0 0 0
13-04-2019 22.5 (17:30) 3.4 (00:00) 13 10.28 (14:10) 5.28 (12:40) 0 0 0 0 0
12-04-2019 18.7 (17:20) 4.8 (00:00) 11.8 11.67 (16:00) 6.94 (16:00) 0 0 0 0 0
11-04-2019 18.1 (16:40) 3.9 (00:00) 11 11.11 (17:20) 6.39 (18:20) 0 0 0 0 0
10-04-2019 13.4 (15:50) 5.3 (00:00) 9.3 12.22 (17:10) 6.11 (17:20) 3 0 0 3 0
09-04-2019 16.8 (16:40) 6.5 (00:00) 11.6 16.39 (17:20) 9.17 (17:20) 0.8 0.4 0 0.4 0
08-04-2019 18.7 (16:00) 7.4 (00:00) 13.1 9.17 (19:10) 5.28 (17:00) 0 0 0 0 0
07-04-2019 15.7 (18:00) 5.5 (00:00) 10.6 16.11 (12:30) 9.72 (12:20) 3.4 0 3.4 0 0
06-04-2019 15 (16:20) 4.9 (00:00) 10 13.61 (15:40) 8.06 (16:30) 0.2 0 0 0.2 0
05-04-2019 16.5 (13:30) 5.9 (00:00) 11.2 14.72 (20:40) 10 (20:40) 1.2 0 0 1.2 0
04-04-2019 17.6 (17:40) 5.8 (00:00) 11.7 15.28 (14:20) 4.72 (19:20) 0 0 0 0 0
03-04-2019 22.6 (16:50) 6.2 (00:00) 14.4 11.11 (19:50) 6.67 (19:50) 0 0 0 0 0
02-04-2019 19.7 (19:00) 9.5 (00:00) 14.6 6.39 (20:20) 3.06 (20:30) 2.2 0.2 0 1.6 0.4
01-04-2019 17.4 (16:00) 9.7 (00:00) 13.5 8.33 (16:30) 4.72 (16:40) 9.4 0 0 0 9.4
31-03-2019 11.3 (16:40) 8 (00:00) 9.7 8.89 (18:10) 4.72 (18:10) 18 1.8 11.6 3.8 0.8
30-03-2019 19 (15:30) 0.9 (00:00) 9.9 8.61 (16:40) 5 (16:50) 0 0 0 0 0
29-03-2019 16.3 (14:10) -0.4 (00:00) 7.9 9.17 (12:00) 5.83 (18:30) 0 0 0 0 0
28-03-2019 18.5 (15:10) -1.1 (-00:0) 8.7 9.44 (16:00) 5.28 (18:00) 0 0 0 0 0
27-03-2019 18 (15:30) 0.2 (00:00) 9.1 8.33 (16:30) 5.56 (18:00) 0 0 0 0 0
26-03-2019 18.7 (14:50) 1.9 (00:00) 10.3 11.67 (10:50) 7.78 (10:50) 0 0 0 0 0
25-03-2019 22.6 (16:00) 1.4 (00:00) 12 6.39 (15:50) 3.61 (18:30) 0 0 0 0 0
24-03-2019 20 (15:00) 1.8 (00:00) 10.9 8.89 (15:50) 5.56 (15:50) 0 0 0 0 0
23-03-2019 15.4 (17:50) 5.6 (00:00) 10.5 8.33 (18:30) 3.89 (18:30) 0 0 0 0 0
22-03-2019 16.9 (15:30) 1.5 (00:00) 9.2 12.78 (13:50) 7.22 (15:10) 0 0 0 0 0
21-03-2019 14.9 (15:00) -0.3 (00:00) 7.3 11.39 (14:00) 6.94 (15:20) 0 0 0 0 0

Gráficas

Temp. máximas Temp. mínimas Temp. medias Precipitaciones Rachas de viento máximas Velocidades máximas media en intervalos de 10 minutos

Datos horarios

Fecha y hora oficial Temperatura (ºC) Velocidad del viento (km/h) Dirección del viento Racha (km/h) Dirección de racha Precipitación (mm) Presión (hPa) Tendencia (hPa) Humedad (%)
2019-04-19 23:00:00 9 9 Noroeste 17 Noroeste 3.8 -- -- 97
2019-04-19 22:00:00 9.2 3 Norte 15 Norte 4 -- -- 96
2019-04-19 21:00:00 9.5 4 Nordeste 10 Nordeste 6.4 -- -- 97
2019-04-19 20:00:00 9.9 5 Nordeste 14 Norte 3.4 -- -- 96
2019-04-19 19:00:00 10.1 5 Nordeste 10 Nordeste 2.8 -- -- 95
2019-04-19 18:00:00 10.2 4 Nordeste 9 Norte 2.4 -- -- 94
2019-04-19 17:00:00 10.5 4 Noroeste 10 Este 2.6 -- -- 94
2019-04-19 16:00:00 10.7 7 Nordeste 13 Este 2.4 -- -- 94
2019-04-19 15:00:00 10.8 5 Este 10 Este 1.6 -- -- 94
2019-04-19 14:00:00 11.1 3 Nordeste 9 Este 1 -- -- 92
2019-04-19 13:00:00 11.3 3 Sudeste 7 Sudeste 0.6 -- -- 90
2019-04-19 12:00:00 11.2 2 Norte 4 Nordeste 0.6 -- -- 95
2019-04-19 11:00:00 10.8 0 Calma 10 Sudeste 2.2 -- -- 97
2019-04-19 10:00:00 10.4 6 Este 11 Este 2.4 -- -- 98
2019-04-19 09:00:00 10 3 Sudeste 6 Sudeste 1.8 -- -- 99
2019-04-19 08:00:00 9.4 0 Calma 4 Noroeste 1 -- -- 98
2019-04-19 07:00:00 9.2 3 Nordeste 5 Este 1 -- -- 98
2019-04-19 06:00:00 8.9 2 Norte 4 Sudeste 0 -- -- 98
2019-04-19 05:00:00 8.8 2 Noroeste 6 Sudeste 0 -- -- 98
2019-04-19 04:00:00 8.9 0 Calma 6 Norte 0 -- -- 98
2019-04-19 03:00:00 8.7 0 Calma 5 Nordeste 0 -- -- 97
2019-04-19 02:00:00 8.9 0 Calma 4 Norte 0 -- -- 97
2019-04-19 01:00:00 8.6 4 Noroeste 7 Noroeste 0 -- -- 97
2019-04-19 00:00:00 8.7 0 Calma 9 Oeste 0 -- -- 96
2019-04-18 23:00:00 8.7 3 Norte 4 Norte 0 -- -- 95
2019-04-18 22:00:00 10.1 0 Calma 4 Noroeste 0 -- -- 93
2019-04-18 21:00:00 11.2 0 Calma 5 Oeste 0 -- -- 91
2019-04-18 20:00:00 11.4 0 Calma 15 Nordeste 0 -- -- 90
2019-04-18 19:00:00 10.7 13 Oeste 37 Este 1 -- -- 88
2019-04-18 18:00:00 10.7 6 Este 12 Este 0.8 -- -- 92
2019-04-18 17:00:00 10.6 4 Noroeste 14 Norte 1 -- -- 91
2019-04-18 16:00:00 10.8 8 Norte 15 Norte 0.6 -- -- 91
2019-04-18 15:00:00 10.1 9 Norte 37 Noroeste 0.6 -- -- 91
2019-04-18 14:00:00 12.1 7 Noroeste 11 Noroeste 0 -- -- 89
2019-04-18 13:00:00 12.4 6 Este 20 Este 0 -- -- 84
2019-04-18 12:00:00 12.6 11 Este 29 Este 0 -- -- 81
2019-04-18 11:00:00 12.9 4 Este 25 Sudeste 0 -- -- 78
2019-04-18 10:00:00 12.4 12 Este 27 Este 0 -- -- 80
2019-04-18 09:00:00 12 13 Este 32 Este 0 -- -- 78
2019-04-18 08:00:00 11.8 19 Este 35 Sudeste 0 -- -- 76
2019-04-18 07:00:00 11.8 16 Este 37 Este 0 -- -- 78
2019-04-18 06:00:00 12.1 15 Sudeste 30 Sudeste 0 -- -- 78
2019-04-18 05:00:00 12.3 4 Este 26 Sudeste 0 -- -- 77
2019-04-18 04:00:00 12.5 14 Sudeste 27 Este 0 -- -- 75
2019-04-18 03:00:00 12.9 13 Este 31 Este 0 -- -- 73
2019-04-18 02:00:00 13 8 Este 22 Este 0 -- -- 75
2019-04-18 01:00:00 13 17 Este 27 Este 0 -- -- 78
2019-04-18 00:00:00 13.3 6 Norte 17 Este 0 -- -- 77
2019-04-17 23:00:00 13.5 5 Este 15 Este 0 -- -- 77
2019-04-17 22:00:00 14.4 11 Este 21 Sudeste 0 -- -- 73
2019-04-17 21:00:00 15.8 13 Este 22 Este 0 -- -- 62
2019-04-17 20:00:00 17.6 15 Sudeste 27 Sur 0 -- -- 47
2019-04-17 19:00:00 18 23 Sudeste 36 Sudeste 0 -- -- 49
2019-04-17 18:00:00 19.4 22 Sudeste 34 Sur 0 -- -- 43
2019-04-17 17:00:00 20.2 22 Sudeste 33 Sudeste 0 -- -- 44
2019-04-17 16:00:00 20.9 21 Sudeste 32 Sudeste 0 -- -- 43
2019-04-17 15:00:00 21 18 Sudeste 36 Sudeste 0 -- -- 44
2019-04-17 14:00:00 20.7 15 Sur 31 Sudeste 0 -- -- 44
2019-04-17 13:00:00 19.4 13 Sur 27 Este 0 -- -- 47
2019-04-17 12:00:00 17.4 12 Sudeste 21 Sudeste 0 -- -- 53
2019-04-17 11:00:00 15.1 9 Sudeste 18 Este 0 -- -- 66
2019-04-17 10:00:00 13.4 3 Sudeste 10 Este 0 -- -- 71
2019-04-17 09:00:00 12.2 6 Sudeste 10 Este 0 -- -- 77
2019-04-17 08:00:00 11.7 4 Sudeste 12 Sudeste 0 -- -- 80
2019-04-17 07:00:00 11.7 7 Sudeste 12 Sudeste 0 -- -- 80
2019-04-17 06:00:00 11.6 5 Sudeste 12 Sudeste 0 -- -- 82
2019-04-17 05:00:00 11.6 5 Sudeste 11 Sudeste 0 -- -- 81
2019-04-17 04:00:00 11.9 6 Este 13 Este 0 -- -- 80
2019-04-17 03:00:00 12.1 7 Este 17 Este 0 -- -- 80
2019-04-17 02:00:00 12 10 Este 17 Este 0 -- -- 79
2019-04-17 01:00:00 12 6 Sudeste 14 Este 0 -- -- 82
2019-04-17 00:00:00 12.7 7 Este 19 Este 0 -- -- 83
2019-04-16 23:00:00 13.5 13 Este 20 Este 0 -- -- 78
2019-04-16 22:00:00 14.4 13 Sudeste 27 Sur 0 -- -- 70
2019-04-16 21:00:00 15.4 17 Sudeste 31 Sur 0 -- -- 68
2019-04-16 20:00:00 17.6 21 Sudeste 34 Sudeste 0 -- -- 60
2019-04-16 19:00:00 19.5 24 Sudeste 36 Sudeste 0 -- -- 53
2019-04-16 18:00:00 21.5 24 Sudeste 39 Sudeste 0 -- -- 46
2019-04-16 17:00:00 24.3 8 Sudoeste 36 Sur 0 -- -- 29
2019-04-16 16:00:00 24.1 9 Sudoeste 26 Sudeste 0 -- -- 27
2019-04-16 15:00:00 23.3 6 Sudoeste 17 Sudeste 0 -- -- 25
2019-04-16 14:00:00 21.6 10 Sudoeste 17 Sudoeste 0 -- -- 32
2019-04-16 13:00:00 20.3 5 Noroeste 18 Noroeste 0 -- -- 40
2019-04-16 12:00:00 18.9 8 Norte 17 Norte 0 -- -- 46
2019-04-16 11:00:00 17.3 9 Noroeste 21 Noroeste 0 -- -- 54
2019-04-16 10:00:00 15.5 10 Norte 21 Norte 0 -- -- 60
2019-04-16 09:00:00 14 9 Norte 17 Norte 0 -- -- 65
2019-04-16 08:00:00 11.1 5 Noroeste 12 Norte 0 -- -- 74
2019-04-16 07:00:00 13 12 Noroeste 25 Norte 0 -- -- 66
2019-04-16 06:00:00 13.2 6 Noroeste 26 Norte 0 -- -- 66
2019-04-16 05:00:00 13.6 14 Noroeste 25 Noroeste 0 -- -- 66
2019-04-16 04:00:00 9.9 5 Noroeste 12 Noroeste 0 -- -- 89
2019-04-16 03:00:00 10.8 2 Norte 8 Norte 0 -- -- 88
2019-04-16 02:00:00 11.4 3 Norte 10 Sudoeste 0 -- -- 85
2019-04-16 01:00:00 12.9 4 Sudoeste 14 Sudoeste 0 -- -- 83
2019-04-16 00:00:00 13.8 6 Sudoeste 13 Sudoeste 0 -- -- 79
2019-04-15 23:00:00 14.9 9 Sudoeste 17 Sudoeste 0 -- -- 73
2019-04-15 22:00:00 16.5 3 Noroeste 12 Oeste 0 -- -- 65
2019-04-15 21:00:00 18 5 Oeste 18 Sudeste 0 -- -- 62
2019-04-15 20:00:00 20.3 12 Sudeste 24 Sudeste 0 -- -- 54
2019-04-15 19:00:00 21.8 16 Sudeste 32 Sudeste 0 -- -- 49
2019-04-15 18:00:00 22.9 19 Sudeste 29 Sudeste 0 -- -- 46
2019-04-15 17:00:00 23.5 17 Sudeste 27 Sudeste 0 -- -- 44
2019-04-15 16:00:00 23.4 19 Sudeste 28 Sudeste 0 -- -- 43
2019-04-15 15:00:00 24.4 17 Sudeste 33 Sudeste 0 -- -- 39
2019-04-15 14:00:00 25 15 Sudeste 31 Sudeste 0 -- -- 35
2019-04-15 13:00:00 22.7 11 Este 23 Nordeste 0 -- -- 42
2019-04-15 12:00:00 20.2 14 Este 24 Este 0 -- -- 52
2019-04-15 11:00:00 18.2 17 Sudeste 25 Sudeste 0 -- -- 59
2019-04-15 10:00:00 16 14 Sudeste 23 Sudeste 0 -- -- 67
2019-04-15 09:00:00 13.9 13 Sudeste 23 Sudeste 0 -- -- 71
2019-04-15 08:00:00 11.6 3 Este 5 Norte 0 -- -- 86
2019-04-15 07:00:00 12.4 0 Calma 8 Norte 0 -- -- 80
2019-04-15 06:00:00 12.8 3 Norte 8 Norte 0 -- -- 77
2019-04-15 05:00:00 12.8 5 Norte 8 Norte 0 -- -- 78
2019-04-15 04:00:00 13.4 5 Este 9 Sudeste 0 -- -- 68
2019-04-15 03:00:00 13.6 5 Nordeste 7 Nordeste 0 -- -- 70
2019-04-15 02:00:00 14.1 0 Calma 11 Norte 0 -- -- 69
2019-04-15 01:00:00 14.5 6 Norte 10 Noroeste 0 -- -- 68
2019-04-15 00:00:00 14 4 Noroeste 8 Norte 0 -- -- 69
2019-04-14 23:00:00 16.6 3 Noroeste 9 Sudoeste 0 -- -- 57
2019-04-14 22:00:00 19.8 6 Oeste 18 Noroeste 0 -- -- 41
2019-04-14 21:00:00 22.1 8 Oeste 15 Oeste 0 -- -- 35
2019-04-14 20:00:00 25.4 9 Norte 21 Oeste 0 -- -- 35
2019-04-14 19:00:00 26.2 5 Noroeste 30 Noroeste 0 -- -- 29
2019-04-14 18:00:00 26.3 10 Norte 21 Noroeste 0 -- -- 28
2019-04-14 17:00:00 25.9 10 Noroeste 18 Oeste 0 -- -- 28
2019-04-14 16:00:00 25.5 12 Oeste 28 Norte 0 -- -- 28
2019-04-14 15:00:00 24.4 6 Norte 21 Norte 0 -- -- 30
2019-04-14 14:00:00 23.6 12 Noroeste 23 Noroeste 0 -- -- 34
2019-04-14 13:00:00 22 13 Noroeste 28 Oeste 0 -- -- 35
2019-04-14 12:00:00 21 11 Noroeste 22 Oeste 0 -- -- 39
2019-04-14 11:00:00 19.5 2 Sudeste 11 Sur 0 -- -- 42
2019-04-14 10:00:00 16 0 Calma 5 Sudoeste 0 -- -- 51
2019-04-14 09:00:00 11.4 0 Calma 12 Norte 0 -- -- 64
2019-04-14 08:00:00 8.5 7 Norte 13 Norte 0 -- -- 72
2019-04-14 07:00:00 8 8 Norte 12 Norte 0 -- -- 73
2019-04-14 06:00:00 6.4 5 Norte 8 Norte 0 -- -- 80
2019-04-14 05:00:00 6.4 4 Norte 6 Noroeste 0 -- -- 79
2019-04-14 04:00:00 6.8 0 Calma 4 Norte 0 -- -- 79
2019-04-14 03:00:00 7.8 3 Norte 9 Norte 0 -- -- 70
2019-04-14 02:00:00 8.7 6 Norte 8 Noroeste 0 -- -- 65
2019-04-14 01:00:00 9.4 4 Norte 9 Noroeste 0 -- -- 63
2019-04-14 00:00:00 10.8 3 Noroeste 13 Sudoeste 0 -- -- 53
2019-04-13 23:00:00 13.8 9 Sudoeste 12 Sudoeste 0 -- -- 48
2019-04-13 22:00:00 13.9 5 Noroeste 6 Noroeste 0 -- -- 40
2019-04-13 21:00:00 18 3 Norte 12 Norte 0 -- -- 29
2019-04-13 20:00:00 21.3 6 Norte 22 Noroeste 0 -- -- 22
2019-04-13 19:00:00 22.1 10 Norte 24 Norte 0 -- -- 19
2019-04-13 18:00:00 22.4 11 Norte 27 Norte 0 -- -- 19
2019-04-13 17:00:00 22.1 14 Norte 32 Nordeste 0 -- -- 20
2019-04-13 16:00:00 21.7 15 Norte 30 Sudoeste 0 -- -- 22
2019-04-13 15:00:00 21.3 11 Norte 37 Noroeste 0 -- -- 23
2019-04-13 14:00:00 20 17 Noroeste 31 Norte 0 -- -- 24
2019-04-13 13:00:00 19.1 17 Norte 32 Norte 0 -- -- 26
2019-04-13 12:00:00 18.1 11 Noroeste 24 Noroeste 0 -- -- 35
2019-04-13 11:00:00 15.9 14 Noroeste 23 Noroeste 0 -- -- 39
2019-04-13 10:00:00 13.7 4 Nordeste 9 Nordeste 0 -- -- 45
2019-04-13 09:00:00 8.1 3 Este 5 Este 0 -- -- 75
2019-04-13 08:00:00 3.6 3 Norte 7 Norte 0 -- -- 84
2019-04-13 07:00:00 4.9 3 Norte 11 Nordeste 0 -- -- 77
2019-04-13 06:00:00 5.1 2 Norte 8 Norte 0 -- -- 77
2019-04-13 05:00:00 5.8 4 Norte 10 Norte 0 -- -- 73
2019-04-13 04:00:00 7 3 Este 10 Norte 0 -- -- 69
2019-04-13 03:00:00 6.9 6 Norte 10 Norte 0 -- -- 71
2019-04-13 02:00:00 8 4 Norte 10 Norte 0 -- -- 68
2019-04-13 01:00:00 9 5 Noroeste 8 Norte 0 -- -- 65
2019-04-13 00:00:00 8.6 0 Calma 6 Norte 0 -- -- 66
2019-04-12 23:00:00 10 0 Calma 9 Oeste 0 -- -- 59
2019-04-12 22:00:00 12.4 7 Noroeste 9 Noroeste 0 -- -- 46
2019-04-12 21:00:00 15 8 Noroeste 25 Noroeste 0 -- -- 38
2019-04-12 20:00:00 17.4 15 Noroeste 33 Norte 0 -- -- 34
2019-04-12 19:00:00 18.1 18 Norte 30 Noroeste 0 -- -- 32
2019-04-12 18:00:00 18.5 22 Noroeste 37 Noroeste 0 -- -- 33
2019-04-12 17:00:00 18.6 18 Noroeste 39 Noroeste 0 -- -- 34
2019-04-12 16:00:00 18 25 Noroeste 42 Noroeste 0 -- -- 34
2019-04-12 15:00:00 17.5 16 Norte 36 Norte 0 -- -- 33
2019-04-12 14:00:00 16.4 15 Norte 34 Norte 0 -- -- 38
2019-04-12 13:00:00 15 15 Norte 34 Norte 0 -- -- 41
2019-04-12 12:00:00 13.2 15 Norte 29 Noroeste 0 -- -- 48
2019-04-12 11:00:00 11.6 13 Norte 24 Noroeste 0 -- -- 51
2019-04-12 10:00:00 10.2 10 Norte 19 Noroeste 0 -- -- 58
2019-04-12 09:00:00 8.4 4 Norte 17 Norte 0 -- -- 66
2019-04-12 08:00:00 5.5 4 Norte 10 Noroeste 0 -- -- 77
2019-04-12 07:00:00 6.1 6 Norte 15 Norte 0 -- -- 74
2019-04-12 06:00:00 6 11 Noroeste 14 Noroeste 0 -- -- 75
2019-04-12 05:00:00 5.5 3 Noroeste 11 Noroeste 0 -- -- 76
2019-04-12 04:00:00 5.3 5 Noroeste 10 Noroeste 0 -- -- 78
2019-04-12 03:00:00 6.3 4 Noroeste 8 Noroeste 0 -- -- 73
2019-04-12 02:00:00 8.8 5 Nordeste 12 Noroeste 0 -- -- 60
2019-04-12 01:00:00 7.5 2 Este 6 Este 0 -- -- 70
2019-04-12 00:00:00 8.2 0 Calma 4 Sur 0 -- -- 66
2019-04-11 23:00:00 10.4 3 Norte 13 Norte 0 -- -- 54
2019-04-11 22:00:00 12.3 9 Noroeste 17 Noroeste 0 -- -- 46
2019-04-11 21:00:00 13.3 9 Noroeste 28 Noroeste 0 -- -- 44
2019-04-11 20:00:00 15.1 17 Noroeste 37 Noroeste 0 -- -- 40
2019-04-11 19:00:00 17.4 21 Noroeste 39 Noroeste 0 -- -- 34
2019-04-11 18:00:00 17.8 21 Noroeste 40 Noroeste 0 -- -- 35
2019-04-11 17:00:00 18.1 18 Norte 36 Oeste 0 -- -- 35
2019-04-11 16:00:00 17.2 16 Noroeste 35 Norte 0 -- -- 41
2019-04-11 15:00:00 16.4 17 Norte 35 Noroeste 0 -- -- 44
2019-04-11 14:00:00 15.4 18 Norte 37 Noroeste 0 -- -- 47
2019-04-11 13:00:00 14 18 Noroeste 35 Noroeste 0 -- -- 53
2019-04-11 12:00:00 12.5 19 Norte 35 Noroeste 0 -- -- 57
2019-04-11 11:00:00 11.1 19 Norte 32 Noroeste 0 -- -- 61
2019-04-11 10:00:00 9.8 11 Norte 19 Norte 0 -- -- 66
2019-04-11 09:00:00 7.7 6 Noroeste 15 Norte 0 -- -- 77
2019-04-11 08:00:00 5.2 6 Norte 13 Norte 0 -- -- 87
2019-04-11 07:00:00 4.1 0 Calma 5 Oeste 0 -- -- 89
2019-04-11 06:00:00 5.2 3 Sudoeste 12 Nordeste 0 -- -- 88
2019-04-11 05:00:00 6.7 3 Nordeste 22 Norte 0 -- -- 82
2019-04-11 04:00:00 7.8 12 Norte 32 Noroeste 0 -- -- 77
2019-04-11 03:00:00 7.4 12 Norte 23 Norte 0 -- -- 79
2019-04-11 02:00:00 5.5 0 Calma 10 Noroeste 0 -- -- 86
2019-04-11 01:00:00 6.5 7 Noroeste 18 Noroeste 0 -- -- 85
2019-04-11 00:00:00 7.2 8 Noroeste 15 Noroeste 0 -- -- 83
2019-04-10 23:00:00 8.3 4 Norte 18 Oeste 0 -- -- 77
2019-04-10 22:00:00 9.2 12 Noroeste 24 Noroeste 0 -- -- 73
2019-04-10 21:00:00 9.7 10 Oeste 28 Oeste 0 -- -- 77
2019-04-10 20:00:00 10.6 14 Oeste 28 Oeste 0 -- -- 73
2019-04-10 19:00:00 9.8 12 Sudoeste 20 Sudoeste 0 -- -- 80
2019-04-10 18:00:00 9.2 10 Oeste 44 Noroeste 0.4 -- -- 79
2019-04-10 17:00:00 8.7 7 Noroeste 39 Norte 2 -- -- 80
2019-04-10 16:00:00 12.8 10 Norte 24 Oeste 0.2 -- -- 59
2019-04-10 15:00:00 9.9 17 Noroeste 37 Noroeste 0.2 -- -- 76
2019-04-10 14:00:00 12 13 Noroeste 28 Noroeste 0.2 -- -- 61
2019-04-10 13:00:00 12.4 18 Noroeste 35 Noroeste 0 -- -- 55
2019-04-10 12:00:00 12.6 19 Noroeste 33 Noroeste 0 -- -- 54
2019-04-10 11:00:00 11.2 19 Noroeste 32 Norte 0 -- -- 62
2019-04-10 10:00:00 11.8 15 Noroeste 27 Noroeste 0 -- -- 63
2019-04-10 09:00:00 9.5 4 Noroeste 13 Noroeste 0 -- -- 73
2019-04-10 08:00:00 6.1 4 Noroeste 10 Oeste 0 -- -- 82
2019-04-10 07:00:00 7.1 6 Oeste 13 Oeste 0 -- -- 79
2019-04-10 06:00:00 7.5 3 Noroeste 10 Noroeste 0 -- -- 79
2019-04-10 05:00:00 7.5 6 Noroeste 18 Noroeste 0 -- -- 79
2019-04-10 04:00:00 9.4 11 Noroeste 27 Noroeste 0 -- -- 70
2019-04-10 03:00:00 9.2 12 Noroeste 22 Noroeste 0 -- -- 73
2019-04-10 02:00:00 5.3 0 Calma 9 Oeste 0 -- -- 89
2019-04-10 01:00:00 6.2 5 Noroeste 10 Norte 0 -- -- 90
2019-04-10 00:00:00 6.5 5 Noroeste 9 Oeste 0 -- -- 86
2019-04-09 23:00:00 9.4 3 Norte 14 Norte 0 -- -- 73
2019-04-09 22:00:00 10.4 7 Oeste 27 Oeste 0 -- -- 69
2019-04-09 21:00:00 10.4 8 Noroeste 25 Oeste 0 -- -- 70
2019-04-09 20:00:00 10.9 8 Oeste 41 Oeste 0 -- -- 75
2019-04-09 19:00:00 13.3 21 Oeste 42 Oeste 0 -- -- 54
2019-04-09 18:00:00 12.6 20 Noroeste 59 Noroeste 0.4 -- -- 63
2019-04-09 17:00:00 15.7 26 Noroeste 38 Oeste 0 -- -- 40
2019-04-09 16:00:00 15.4 25 Noroeste 44 Noroeste 0 -- -- 41
2019-04-09 15:00:00 16.1 18 Noroeste 46 Oeste 0 -- -- 40
2019-04-09 14:00:00 15 18 Noroeste 36 Noroeste 0 -- -- 42
2019-04-09 13:00:00 14.3 17 Oeste 33 Oeste 0 -- -- 51
2019-04-09 12:00:00 12.6 17 Noroeste 34 Noroeste 0 -- -- 56
2019-04-09 11:00:00 11.6 17 Noroeste 40 Noroeste 0 -- -- 60
2019-04-09 10:00:00 11.3 18 Noroeste 36 Noroeste 0 -- -- 61
2019-04-09 09:00:00 9.7 18 Noroeste 33 Norte 0 -- -- 68
2019-04-09 08:00:00 6.7 2 Sudoeste 15 Oeste 0 -- -- 81
2019-04-09 07:00:00 7.3 4 Noroeste 13 Norte 0 -- -- 81
2019-04-09 06:00:00 6.8 0 Calma 13 Noroeste 0 -- -- 88
2019-04-09 05:00:00 7.8 8 Oeste 12 Oeste 0 -- -- 86
2019-04-09 04:00:00 7.7 5 Norte 9 Norte 0 -- -- 92
2019-04-09 03:00:00 9 3 Oeste 6 Noroeste 0 -- -- 91
2019-04-09 02:00:00 9.7 0 Calma 45 Noroeste 0.4 -- -- 87
2019-04-09 01:00:00 11.5 10 Noroeste 17 Noroeste 0 -- -- 71
2019-04-09 00:00:00 13.5 8 Noroeste 30 Oeste 0 -- -- 65
2019-04-08 23:00:00 14.5 17 Noroeste 29 Noroeste 0 -- -- 59
2019-04-08 22:00:00 14.6 10 Noroeste 29 Oeste 0 -- -- 62
2019-04-08 21:00:00 14.8 6 Noroeste 27 Oeste 0 -- -- 59
2019-04-08 20:00:00 15.5 17 Oeste 33 Noroeste 0 -- -- 55
2019-04-08 19:00:00 15.9 18 Noroeste 28 Noroeste 0 -- -- 59
2019-04-08 18:00:00 15.6 11 Norte 30 Norte 0 -- -- 69
2019-04-08 17:00:00 16.7 19 Norte 32 Noroeste 0 -- -- 60
2019-04-08 16:00:00 18.7 15 Noroeste 32 Sudoeste 0 -- -- 50
2019-04-08 15:00:00 17 13 Oeste 25 Sudoeste 0 -- -- 57
2019-04-08 14:00:00 15.8 14 Oeste 27 Oeste 0 -- -- 62
2019-04-08 13:00:00 15.4 13 Noroeste 22 Noroeste 0 -- -- 61
2019-04-08 12:00:00 14.1 7 Sudoeste 13 Sudoeste 0 -- -- 70
2019-04-08 11:00:00 12.5 0 Calma 11 Nordeste 0 -- -- 74
2019-04-08 10:00:00 10.4 0 Calma 6 Norte 0 -- -- 84
2019-04-08 09:00:00 8.6 3 Noroeste 9 Norte 0 -- -- 91
2019-04-08 08:00:00 7.7 3 Noroeste 6 Norte 0 -- -- 93
2019-04-08 07:00:00 7.9 2 Sudeste 9 Norte 0 -- -- 92
2019-04-08 06:00:00 8.3 3 Noroeste 6 Norte 0 -- -- 90
2019-04-08 05:00:00 9.6 0 Calma 4 Nordeste 0 -- -- 86
2019-04-08 04:00:00 10 0 Calma 5 Noroeste 0 -- -- 85
2019-04-08 03:00:00 10 3 Noroeste 6 Noroeste 0 -- -- 83
2019-04-08 02:00:00 10.8 2 Nordeste 4 Nordeste 0 -- -- 75
2019-04-08 01:00:00 11.1 0 Calma 9 Norte 0 -- -- 72
2019-04-08 00:00:00 11.5 7 Noroeste 14 Noroeste 0 -- -- 69
2019-04-07 23:00:00 11.8 8 Noroeste 19 Oeste 0 -- -- 66
2019-04-07 22:00:00 12.6 10 Oeste 16 Oeste 0 -- -- 58
2019-04-07 21:00:00 13.2 12 Oeste 23 Oeste 0 -- -- 55
2019-04-07 20:00:00 14 13 Oeste 39 Noroeste 0 -- -- 50
2019-04-07 19:00:00 14.9 18 Noroeste 44 Noroeste 0 -- -- 45
2019-04-07 18:00:00 15.7 23 Noroeste 44 Noroeste 0 -- -- 38
2019-04-07 17:00:00 15.3 24 Noroeste 44 Noroeste 0 -- -- 41
2019-04-07 16:00:00 14.5 18 Noroeste 45 Noroeste 0 -- -- 51
2019-04-07 15:00:00 13.1 23 Noroeste 51 Oeste 0 -- -- 51
2019-04-07 14:00:00 13 31 Noroeste 57 Noroeste 0 -- -- 54
2019-04-07 13:00:00 12.3 30 Noroeste 58 Noroeste 0 -- -- 58
2019-04-07 12:00:00 11.2 30 Noroeste 53 Noroeste 0 -- -- 64
2019-04-07 11:00:00 10.1 22 Noroeste 36 Noroeste 0 -- -- 73
2019-04-07 10:00:00 7.6 17 Noroeste 32 Noroeste 0.4 -- -- 85
2019-04-07 09:00:00 5.8 8 Oeste 13 Oeste 0.8 -- -- 91
2019-04-07 08:00:00 5.6 7 Oeste 16 Noroeste 1 -- -- 90
2019-04-07 07:00:00 6.2 3 Norte 14 Noroeste 1.2 -- -- 88
2019-04-07 06:00:00 6.9 8 Oeste 23 Oeste 0 -- -- 77
2019-04-07 05:00:00 6.9 13 Oeste 26 Oeste 0 -- -- 73
2019-04-07 04:00:00 6.7 15 Oeste 30 Noroeste 0 -- -- 75
2019-04-07 03:00:00 6.8 13 Oeste 20 Oeste 0 -- -- 71
2019-04-07 02:00:00 7.2 9 Oeste 23 Noroeste 0 -- -- 68
2019-04-07 01:00:00 7.2 9 Noroeste 24 Oeste 0 -- -- 68
2019-04-07 00:00:00 7.2 9 Oeste 19 Oeste 0 -- -- 69
2019-04-06 23:00:00 7.5 10 Oeste 28 Oeste 0 -- -- 69
2019-04-06 22:00:00 8.2 14 Oeste 32 Oeste 0 -- -- 66
2019-04-06 21:00:00 8.8 20 Oeste 32 Noroeste 0 -- -- 62
2019-04-06 20:00:00 10.7 14 Oeste 29 Oeste 0 -- -- 58
2019-04-06 19:00:00 11.3 16 Oeste 28 Oeste 0 -- -- 58
2019-04-06 18:00:00 10.2 12 Oeste 36 Norte 0 -- -- 65
2019-04-06 17:00:00 9.3 26 Norte 48 Noroeste 0.2 -- -- 67
2019-04-06 16:00:00 14.9 23 Noroeste 49 Noroeste 0 -- -- 39
2019-04-06 15:00:00 14.3 24 Noroeste 41 Oeste 0 -- -- 41
2019-04-06 14:00:00 12.7 19 Oeste 42 Oeste 0 -- -- 46
2019-04-06 13:00:00 13.1 18 Oeste 30 Oeste 0 -- -- 50
2019-04-06 12:00:00 12.5 12 Sudoeste 31 Oeste 0 -- -- 52
2019-04-06 11:00:00 10.7 14 Oeste 30 Oeste 0 -- -- 57
2019-04-06 10:00:00 9.1 8 Sudoeste 15 Oeste 0 -- -- 63
2019-04-06 09:00:00 6.2 3 Oeste 7 Sudoeste 0 -- -- 81
2019-04-06 08:00:00 5.5 3 Noroeste 11 Noroeste 0 -- -- 81
2019-04-06 07:00:00 5 5 Noroeste 9 Noroeste 0 -- -- 85
2019-04-06 06:00:00 5.8 6 Noroeste 11 Noroeste 0 -- -- 80
2019-04-06 05:00:00 6.2 5 Noroeste 15 Noroeste 0 -- -- 79
2019-04-06 04:00:00 7.5 10 Noroeste 29 Oeste 0 -- -- 70
2019-04-06 03:00:00 7.6 17 Oeste 32 Oeste 0 -- -- 67
2019-04-06 02:00:00 7.1 16 Oeste 40 Noroeste 0 -- -- 68
2019-04-06 01:00:00 5.6 6 Oeste 10 Noroeste 0 -- -- 76
2019-04-06 00:00:00 5.9 3 Oeste 12 Oeste 0 -- -- 75
2019-04-05 23:00:00 6.4 5 Sudoeste 18 Oeste 0 -- -- 75
2019-04-05 22:00:00 6.6 15 Noroeste 27 Oeste 0 -- -- 74
2019-04-05 21:00:00 7.2 14 Noroeste 53 Oeste 0 -- -- 78
2019-04-05 20:00:00 11 5 Sudoeste 9 Sudoeste 0 -- -- 78
2019-04-05 19:00:00 10.2 2 Sudoeste 6 Sur 0 -- -- 80
2019-04-05 18:00:00 9.8 2 Noroeste 9 Oeste 0 -- -- 80
2019-04-05 17:00:00 9.8 0 Calma 16 Noroeste 0.4 -- -- 81
2019-04-05 16:00:00 9.2 14 Noroeste 50 Noroeste 0.8 -- -- 86
2019-04-05 15:00:00 12 23 Noroeste 40 Noroeste 0 -- -- 70
2019-04-05 14:00:00 15.4 9 Sudoeste 21 Oeste 0 -- -- 46
2019-04-05 13:00:00 15.2 9 Sudoeste 26 Sudoeste 0 -- -- 44
2019-04-05 12:00:00 13.9 8 Sudoeste 18 Sudoeste 0 -- -- 49
2019-04-05 11:00:00 12.8 11 Sudoeste 19 Sur 0 -- -- 55
2019-04-05 10:00:00 10.6 3 Sudeste 7 Sudeste 0 -- -- 77
2019-04-05 09:00:00 7.4 0 Calma 4 Este 0 -- -- 93
2019-04-05 08:00:00 6.4 0 Calma 4 Noroeste 0 -- -- 94
2019-04-05 07:00:00 6.4 0 Calma 5 Norte 0 -- -- 93
2019-04-05 06:00:00 6.4 2 Norte 6 Nordeste 0 -- -- 91
2019-04-05 05:00:00 6.7 0 Calma 4 Este 0 -- -- 89
2019-04-05 04:00:00 8.3 0 Calma 15 Sudoeste 0 -- -- 84
2019-04-05 03:00:00 9.2 7 Sudoeste 14 Sudoeste 0 -- -- 81
2019-04-05 02:00:00 9.9 8 Sur 21 Sur 0 -- -- 74
2019-04-05 01:00:00 10.4 11 Sur 23 Sur 0 -- -- 72
2019-04-05 00:00:00 10.7 5 Sur 20 Sur 0 -- -- 73
2019-04-04 23:00:00 10.9 6 Sur 14 Sudeste 0 -- -- 71
2019-04-04 22:00:00 11.4 4 Sur 23 Sudeste 0 -- -- 69
2019-04-04 21:00:00 11.4 14 Sudeste 31 Sudeste 0 -- -- 70
2019-04-04 20:00:00 13 16 Sudeste 31 Sudeste 0 -- -- 61
2019-04-04 19:00:00 15.9 14 Sur 33 Sudoeste 0 -- -- 50
2019-04-04 18:00:00 17.5 8 Oeste 16 Noroeste 0 -- -- 30
2019-04-04 17:00:00 17.2 4 Sudoeste 14 Sudoeste 0 -- -- 30
2019-04-04 16:00:00 16.1 4 Sur 17 Oeste 0 -- -- 30
2019-04-04 15:00:00 15.7 6 Nordeste 55 Nordeste 0 -- -- 30
2019-04-04 14:00:00 14.6 8 Norte 17 Este 0 -- -- 30
2019-04-04 13:00:00 13.7 8 Nordeste 22 Noroeste 0 -- -- 29
2019-04-04 12:00:00 13.1 11 Nordeste 19 Nordeste 0 -- -- 32
2019-04-04 11:00:00 11.7 9 Norte 18 Norte 0 -- -- 43
2019-04-04 10:00:00 10 5 Noroeste 9 Noroeste 0 -- -- 51
2019-04-04 09:00:00 8.2 4 Norte 9 Nordeste 0 -- -- 68
2019-04-04 08:00:00 5.9 6 Norte 12 Norte 0 -- -- 78
2019-04-04 07:00:00 6.1 7 Norte 12 Norte 0 -- -- 75
2019-04-04 06:00:00 6.2 4 Nordeste 8 Nordeste 0 -- -- 75
2019-04-04 05:00:00 6.6 3 Noroeste 11 Nordeste 0 -- -- 76
2019-04-04 04:00:00 8.8 5 Nordeste 13 Norte 0 -- -- 64
2019-04-04 03:00:00 9.6 4 Norte 14 Norte 0 -- -- 63
2019-04-04 02:00:00 10.3 4 Norte 10 Noroeste 0 -- -- 62
2019-04-04 01:00:00 11.9 6 Noroeste 22 Noroeste 0 -- -- 55
2019-04-04 00:00:00 13.7 13 Norte 30 Noroeste 0 -- -- 49
2019-04-03 23:00:00 14.9 12 Noroeste 23 Oeste 0 -- -- 46
2019-04-03 22:00:00 14.8 8 Noroeste 19 Oeste 0 -- -- 55
2019-04-03 21:00:00 16.9 10 Oeste 33 Oeste 0 -- -- 46
2019-04-03 20:00:00 18.7 24 Noroeste 40 Noroeste 0 -- -- 40
2019-04-03 19:00:00 20.8 17 Noroeste 35 Oeste 0 -- -- 33
2019-04-03 18:00:00 21.1 15 Noroeste 26 Norte 0 -- -- 33
2019-04-03 17:00:00 22.4 13 Oeste 31 Sudoeste 0 -- -- 36
2019-04-03 16:00:00 20.9 10 Sudoeste 29 Sudoeste 0 -- -- 41
2019-04-03 15:00:00 20.6 7 Sudoeste 25 Sudoeste 0 -- -- 43
2019-04-03 14:00:00 19.7 15 Sudoeste 31 Oeste 0 -- -- 44
2019-04-03 13:00:00 17.7 15 Noroeste 31 Oeste 0 -- -- 50
2019-04-03 12:00:00 17.7 5 Sudoeste 15 Sudoeste 0 -- -- 58
2019-04-03 11:00:00 15.7 6 Sur 10 Sur 0 -- -- 64
2019-04-03 10:00:00 12.7 0 Calma 4 Norte 0 -- -- 84
2019-04-03 09:00:00 8.6 0 Calma 4 Nordeste 0 -- -- 98
2019-04-03 08:00:00 6.2 0 Calma 7 Norte 0 -- -- 97
2019-04-03 07:00:00 6.7 2 Norte 4 Noroeste 0 -- -- 96
2019-04-03 06:00:00 7.5 0 Calma 4 Norte 0 -- -- 95
2019-04-03 05:00:00 8.6 4 Norte 10 Norte 0 -- -- 94
2019-04-03 04:00:00 8.7 5 Noroeste 8 Noroeste 0 -- -- 93
2019-04-03 03:00:00 9.7 5 Noroeste 7 Noroeste 0 -- -- 92
2019-04-03 02:00:00 10.7 2 Nordeste 9 Norte 0 -- -- 92
2019-04-03 01:00:00 11.4 0 Calma 9 Norte 0 -- -- 92
2019-04-03 00:00:00 11.4 5 Norte 9 Noroeste 0 -- -- 91
2019-04-02 23:00:00 11.4 3 Noroeste 8 Sudeste 0 -- -- 88
2019-04-02 22:00:00 12.7 3 Norte 8 Este 0.4 -- -- 85
2019-04-02 21:00:00 14.3 9 Norte 23 Norte 0 -- -- 69
2019-04-02 20:00:00 18.3 5 Sudoeste 13 Sudoeste 0 -- -- 54
2019-04-02 19:00:00 19.7 3 Sudoeste 10 Oeste 0 -- -- 49
2019-04-02 18:00:00 18.5 7 Sudoeste 16 Sudoeste 0 -- -- 53
2019-04-02 17:00:00 18.4 8 Sudoeste 15 Sudoeste 0 -- -- 57
2019-04-02 16:00:00 16.1 9 Oeste 22 Noroeste 1.4 -- -- 70
2019-04-02 15:00:00 16.7 2 Este 20 Norte 0.2 -- -- 58
2019-04-02 14:00:00 17.5 8 Norte 18 Noroeste 0 -- -- 56
2019-04-02 13:00:00 16.3 9 Norte 15 Norte 0 -- -- 61
2019-04-02 12:00:00 15.5 9 Norte 19 Noroeste 0 -- -- 66
2019-04-02 11:00:00 14.2 7 Nordeste 14 Nordeste 0 -- -- 80
2019-04-02 10:00:00 12.2 5 Nordeste 8 Oeste 0 -- -- 88
2019-04-02 09:00:00 10.2 3 Noroeste 9 Noroeste 0 -- -- 97
2019-04-02 08:00:00 9.6 6 Noroeste 9 Noroeste 0 -- -- 97
2019-04-02 07:00:00 10 5 Noroeste 7 Noroeste 0 -- -- 97
2019-04-02 06:00:00 10.4 4 Sudoeste 12 Sudoeste 0 -- -- 97
2019-04-02 05:00:00 10.7 8 Oeste 13 Oeste 0 -- -- 97
2019-04-02 04:00:00 11.1 4 Sudoeste 9 Sudoeste 0 -- -- 97
2019-04-02 03:00:00 11.2 4 Sudoeste 6 Sudoeste 0 -- -- 97
2019-04-02 02:00:00 11.4 0 Calma 2 Norte 0.2 -- -- 97
2019-04-02 01:00:00 11.4 2 Sur 3 Sudeste 0 -- -- 96
2019-04-02 00:00:00 11.3 0 Calma 8 Sur 0.2 -- -- 95
2019-04-01 23:00:00 11.5 5 Sudeste 15 Sudeste 2.6 -- -- 94
2019-04-01 22:00:00 11.6 6 Sudeste 12 Sudeste 1.2 -- -- 95
2019-04-01 21:00:00 11.6 3 Nordeste 10 Sudeste 4.4 -- -- 94
2019-04-01 20:00:00 12.3 9 Sudeste 26 Sudeste 0.2 -- -- 90
2019-04-01 19:00:00 13.6 17 Sudeste 27 Este 0.8 -- -- 83
2019-04-01 18:00:00 15.6 10 Este 25 Sudeste 0 -- -- 70
2019-04-01 17:00:00 15.5 17 Sudeste 30 Sudeste 0 -- -- 71
2019-04-01 16:00:00 17.4 10 Este 23 Este 0 -- -- 61
2019-04-01 15:00:00 16.4 9 Este 22 Este 0 -- -- 63
2019-04-01 14:00:00 15.6 11 Este 25 Este 0 -- -- 64
2019-04-01 13:00:00 14.7 9 Sudeste 19 Este 0 -- -- 74
2019-04-01 12:00:00 13.4 10 Sudeste 15 Sudeste 0 -- -- 81
2019-04-01 11:00:00 11.7 2 Sur 8 Sudeste 0 -- -- 87
2019-04-01 10:00:00 10.7 3 Este 12 Sudeste 0 -- -- 93
2019-04-01 09:00:00 9.9 4 Sudeste 10 Sudeste 0 -- -- 95
2019-04-01 08:00:00 9.8 5 Este 9 Este 0 -- -- 96
2019-04-01 07:00:00 9.8 0 Calma 6 Sudeste 0 -- -- 96
2019-04-01 06:00:00 9.8 3 Sudeste 9 Sudeste 0 -- -- 95
2019-04-01 05:00:00 9.9 0 Calma 8 Sudeste 0 -- -- 94
2019-04-01 04:00:00 10 5 Sudeste 14 Este 0 -- -- 93
2019-04-01 03:00:00 10.1 10 Sudeste 16 Sudeste 0 -- -- 93
2019-04-01 02:00:00 10.2 0 Calma 15 Sudeste 0 -- -- 93
2019-04-01 01:00:00 10.3 9 Sudeste 19 Sudeste 0 -- -- 93
2019-04-01 00:00:00 10.5 8 Sudeste 18 Sudeste 0.2 -- -- 91
2019-03-31 23:00:00 11.1 6 Este 15 Este 0 -- -- 86
2019-03-31 22:00:00 11 8 Este 20 Este 0 -- -- 88
2019-03-31 21:00:00 11 6 Nordeste 20 Este 0 -- -- 87
2019-03-31 20:00:00 10.8 7 Nordeste 22 Este 0 -- -- 89
2019-03-31 19:00:00 11 10 Este 32 Este 0.6 -- -- 89
2019-03-31 18:00:00 11 15 Este 27 Este 0.8 -- -- 89
2019-03-31 17:00:00 11.3 14 Este 27 Este 0.4 -- -- 88
2019-03-31 16:00:00 11 14 Este 28 Este 0.2 -- -- 89
2019-03-31 15:00:00 10.5 12 Este 22 Este 0.6 -- -- 91
2019-03-31 14:00:00 10.3 12 Este 21 Este 0.6 -- -- 91
2019-03-31 13:00:00 9.8 4 Nordeste 11 Este 1.2 -- -- 96
2019-03-31 12:00:00 9 3 Norte 6 Noroeste 1.8 -- -- 96
2019-03-31 11:00:00 8.9 0 Calma 9 Nordeste 2.6 -- -- 96
2019-03-31 10:00:00 8.2 4 Noroeste 7 Oeste 2.4 -- -- 95
2019-03-31 09:00:00 8.1 3 Este 18 Este 2 -- -- 92
2019-03-31 08:00:00 8.2 8 Este 24 Este 2 -- -- 90
2019-03-31 07:00:00 8.3 8 Este 27 Este 0.8 -- -- 88
2019-03-31 06:00:00 8 6 Este 15 Este 1.6 -- -- 89
2019-03-31 05:00:00 8.8 5 Este 12 Sudeste 0.2 -- -- 81
2019-03-31 03:00:00 9.1 6 Sudeste 14 Sudeste 0 -- -- 76
2019-03-31 01:00:00 9 6 Sudeste 18 Este 0 -- -- 77
2019-03-31 00:00:00 9.4 10 Este 20 Sudeste 0 -- -- 74
2019-03-30 23:00:00 10.2 10 Este 28 Este 0 -- -- 75
2019-03-30 22:00:00 11 13 Este 23 Este 0 -- -- 73
2019-03-30 21:00:00 11.7 10 Este 23 Este 0 -- -- 71
2019-03-30 20:00:00 12.6 6 Sudeste 16 Sudeste 0 -- -- 69
2019-03-30 19:00:00 13.9 9 Sudeste 18 Sudeste 0 -- -- 62
2019-03-30 18:00:00 15.7 13 Sur 28 Sur 0 -- -- 52
2019-03-30 17:00:00 17.6 15 Sur 31 Sudeste 0 -- -- 44
2019-03-30 16:00:00 18.9 10 Sur 22 Sudeste 0 -- -- 38
2019-03-30 15:00:00 18.2 9 Sudeste 24 Sudeste 0 -- -- 36
2019-03-30 14:00:00 17.2 12 Sudeste 26 Este 0 -- -- 39
2019-03-30 13:00:00 15.8 9 Este 23 Este 0 -- -- 44
2019-03-30 12:00:00 14.1 9 Este 21 Nordeste 0 -- -- 51
2019-03-30 11:00:00 12.1 5 Sudeste 18 Este 0 -- -- 58
2019-03-30 10:00:00 9.8 5 Sudeste 10 Este 0 -- -- 74
2019-03-30 09:00:00 6.5 5 Este 10 Sudeste 0 -- -- 89
2019-03-30 08:00:00 3 4 Este 6 Este 0 -- -- 89
2019-03-30 07:00:00 0.9 2 Norte 5 Norte 0 -- -- 89
2019-03-30 06:00:00 1.6 0 Calma 9 Norte 0 -- -- 86
2019-03-30 05:00:00 2.1 4 Norte 8 Norte 0 -- -- 86
2019-03-30 04:00:00 2.1 2 Nordeste 5 Norte 0 -- -- 84
2019-03-30 03:00:00 3.1 4 Norte 7 Norte 0 -- -- 83
2019-03-30 02:00:00 3.1 3 Norte 5 Norte 0 -- -- 81
2019-03-30 01:00:00 4.1 2 Norte 6 Noroeste 0 -- -- 77
2019-03-30 00:00:00 4.9 5 Noroeste 8 Noroeste 0 -- -- 74
2019-03-29 23:00:00 5.6 4 Noroeste 7 Este 0 -- -- 67
2019-03-29 22:00:00 8.9 3 Sudeste 15 Este 0 -- -- 61
2019-03-29 21:00:00 10.1 4 Este 16 Sudeste 0 -- -- 55
2019-03-29 20:00:00 11 11 Sudeste 27 Sudeste 0 -- -- 50
2019-03-29 19:00:00 12.7 16 Sur 32 Sur 0 -- -- 43
2019-03-29 18:00:00 14.6 17 Sudeste 30 Sudeste 0 -- -- 41
2019-03-29 17:00:00 15.6 12 Sur 26 Sur 0 -- -- 42
2019-03-29 16:00:00 15.9 15 Sur 30 Sudeste 0 -- -- 39
2019-03-29 15:00:00 15.1 18 Sudeste 30 Sudeste 0 -- -- 43
2019-03-29 14:00:00 15.7 17 Sudeste 30 Sudeste 0 -- -- 41
2019-03-29 13:00:00 14 10 Sur 28 Sudeste 0 -- -- 47
2019-03-29 12:00:00 13.7 15 Sudeste 33 Sudeste 0 -- -- 49
2019-03-29 11:00:00 12.9 14 Sudeste 23 Sudeste 0 -- -- 53
2019-03-29 10:00:00 10.9 5 Sudeste 13 Este 0 -- -- 59
2019-03-29 09:00:00 7.4 3 Sudeste 7 Este 0 -- -- 72
2019-03-29 08:00:00 2.5 0 Calma 4 Noroeste 0 -- -- 80
2019-03-29 07:00:00 -0.3 2 Norte 7 Norte 0 -- -- 79
2019-03-29 06:00:00 0.1 3 Norte 6 Norte 0 -- -- 71
2019-03-29 05:00:00 0.3 4 Norte 6 Norte 0 -- -- 72
2019-03-29 04:00:00 0.8 4 Norte 8 Norte 0 -- -- 67
2019-03-29 03:00:00 1.3 2 Norte 6 Noroeste 0 -- -- 67
2019-03-29 02:00:00 1.9 3 Norte 6 Norte 0 -- -- 67
2019-03-29 01:00:00 2.8 4 Norte 8 Noroeste 0 -- -- 66
2019-03-29 00:00:00 4.4 5 Noroeste 6 Este 0 -- -- 62
2019-03-28 23:00:00 6.5 2 Norte 6 Sudoeste 0 -- -- 61
2019-03-28 22:00:00 10.1 8 Sudeste 16 Sudeste 0 -- -- 50
2019-03-28 21:00:00 10.7 9 Este 19 Sudeste 0 -- -- 51
2019-03-28 20:00:00 11.7 12 Sudeste 26 Sudeste 0 -- -- 50
2019-03-28 19:00:00 13.4 17 Sudeste 33 Sudeste 0 -- -- 43
2019-03-28 18:00:00 15 19 Sudeste 32 Sudeste 0 -- -- 38
2019-03-28 17:00:00 16.2 17 Sur 30 Sudeste 0 -- -- 32
2019-03-28 16:00:00 17.1 16 Sudeste 34 Sudeste 0 -- -- 24
2019-03-28 15:00:00 18.2 9 Sur 31 Sur 0 -- -- 22
2019-03-28 14:00:00 17.4 12 Oeste 26 Sudoeste 0 -- -- 25
2019-03-28 13:00:00 17.2 12 Sudoeste 25 Sudeste 0 -- -- 26
2019-03-28 12:00:00 15.5 10 Este 23 Este 0 -- -- 26
2019-03-28 11:00:00 14 9 Sudeste 18 Sudeste 0 -- -- 27
2019-03-28 10:00:00 10.4 3 Sudeste 9 Sudeste 0 -- -- 44
2019-03-28 09:00:00 6.3 2 Sudeste 8 Este 0 -- -- 54
2019-03-28 08:00:00 2.3 3 Sudeste 7 Sudeste 0 -- -- 65
2019-03-28 07:00:00 -1.1 4 Norte 6 Norte 0 -- -- 78
2019-03-28 06:00:00 -0.3 2 Norte 6 Norte 0 -- -- 73
2019-03-28 05:00:00 0.2 5 Noroeste 8 Noroeste 0 -- -- 71
2019-03-28 04:00:00 1 4 Norte 8 Norte 0 -- -- 69
2019-03-28 03:00:00 1.1 3 Noroeste 5 Noroeste 0 -- -- 68
2019-03-28 02:00:00 2.1 4 Norte 6 Noroeste 0 -- -- 66
2019-03-28 01:00:00 3.4 3 Norte 9 Norte 0 -- -- 63
2019-03-28 00:00:00 3.5 5 Noroeste 9 Noroeste 0 -- -- 61
2019-03-27 23:00:00 4.6 4 Noroeste 7 Oeste 0 -- -- 54
2019-03-27 22:00:00 7.2 3 Noroeste 12 Sudeste 0 -- -- 47
2019-03-27 21:00:00 10.1 6 Este 14 Sur 0 -- -- 39
2019-03-27 20:00:00 11.5 7 Sudeste 23 Sur 0 -- -- 39
2019-03-27 19:00:00 13.7 14 Sudeste 28 Sudeste 0 -- -- 34
2019-03-27 18:00:00 15.4 20 Sudeste 29 Sudeste 0 -- -- 40
2019-03-27 17:00:00 17 12 Sudeste 30 Sudeste 0 -- -- 34
2019-03-27 16:00:00 17.7 13 Este 23 Este 0 -- -- 28
2019-03-27 15:00:00 17.6 10 Nordeste 24 Este 0 -- -- 28
2019-03-27 14:00:00 16.6 10 Nordeste 24 Este 0 -- -- 30
2019-03-27 13:00:00 15.8 11 Nordeste 22 Nordeste 0 -- -- 31
2019-03-27 12:00:00 14.5 10 Este 23 Este 0 -- -- 37
2019-03-27 11:00:00 12.6 13 Este 23 Sudeste 0 -- -- 42
2019-03-27 10:00:00 10.5 4 Este 10 Este 0 -- -- 56
2019-03-27 09:00:00 7.5 2 Nordeste 6 Este 0 -- -- 68
2019-03-27 08:00:00 2.5 3 Nordeste 9 Norte 0 -- -- 86
2019-03-27 07:00:00 0.6 3 Norte 8 Norte 0 -- -- 89
2019-03-27 06:00:00 0.8 3 Norte 8 Norte 0 -- -- 88
2019-03-27 05:00:00 1 5 Norte 8 Norte 0 -- -- 89
2019-03-27 04:00:00 2.4 2 Norte 8 Norte 0 -- -- 85
2019-03-27 03:00:00 2.5 3 Norte 7 Noroeste 0 -- -- 84
2019-03-27 02:00:00 4.7 0 Calma 9 Nordeste 0 -- -- 81
2019-03-27 01:00:00 6.6 4 Norte 15 Este 0 -- -- 76
2019-03-27 00:00:00 8.5 9 Este 18 Este 0 -- -- 72
2019-03-26 23:00:00 8.1 0 Calma 16 Sudeste 0 -- -- 71
2019-03-26 22:00:00 9 9 Sudeste 21 Sudeste 0 -- -- 68
2019-03-26 21:00:00 9.9 10 Sudeste 32 Sudeste 0 -- -- 60
2019-03-26 20:00:00 11.1 19 Sudeste 32 Sudeste 0 -- -- 64
2019-03-26 19:00:00 13 18 Sudeste 36 Sudeste 0 -- -- 66
2019-03-26 18:00:00 15 19 Sudeste 34 Sudeste 0 -- -- 59
2019-03-26 17:00:00 17.1 20 Sudeste 31 Este 0 -- -- 50
2019-03-26 16:00:00 18 14 Sudeste 39 Este 0 -- -- 44
2019-03-26 15:00:00 18.5 19 Este 35 Este 0 -- -- 38
2019-03-26 14:00:00 18.2 20 Este 34 Este 0 -- -- 39
2019-03-26 13:00:00 17.3 19 Este 38 Este 0 -- -- 41
2019-03-26 12:00:00 16.1 22 Este 41 Este 0 -- -- 46
2019-03-26 11:00:00 14.8 25 Este 42 Este 0 -- -- 54
2019-03-26 10:00:00 13.3 23 Este 37 Este 0 -- -- 57
2019-03-26 09:00:00 10.9 10 Este 18 Sudeste 0 -- -- 55
2019-03-26 08:00:00 6.9 5 Este 11 Este 0 -- -- 63
2019-03-26 07:00:00 2.5 3 Norte 7 Noroeste 0 -- -- 71
2019-03-26 06:00:00 2.1 3 Nordeste 6 Norte 0 -- -- 71
2019-03-26 05:00:00 2.2 3 Norte 6 Norte 0 -- -- 68
2019-03-26 04:00:00 3.3 0 Calma 6 Norte 0 -- -- 65
2019-03-26 03:00:00 4.3 4 Norte 8 Norte 0 -- -- 62
2019-03-26 02:00:00 4.5 3 Norte 5 Noroeste 0 -- -- 62
2019-03-26 01:00:00 5.9 4 Noroeste 8 Norte 0 -- -- 59
2019-03-26 00:00:00 7.4 3 Norte 10 Norte 0 -- -- 55
2019-03-25 23:00:00 7.5 5 Noroeste 8 Noroeste 0 -- -- 55
2019-03-25 22:00:00 9.8 2 Norte 6 Este 0 -- -- 49
2019-03-25 21:00:00 11.8 3 Noroeste 6 Noroeste 0 -- -- 45
2019-03-25 20:00:00 15.4 0 Calma 10 Sudeste 0 -- -- 38
2019-03-25 19:00:00 18 8 Sur 23 Este 0 -- -- 32
2019-03-25 18:00:00 21.3 12 Sudoeste 19 Sudoeste 0 -- -- 26
2019-03-25 17:00:00 22.2 9 Sudoeste 22 Sudoeste 0 -- -- 25
2019-03-25 16:00:00 22.6 9 Sudoeste 23 Sudoeste 0 -- -- 25
2019-03-25 15:00:00 22.1 6 Oeste 19 Oeste 0 -- -- 24
2019-03-25 14:00:00 21.5 5 Sudoeste 22 Oeste 0 -- -- 25
2019-03-25 13:00:00 20.3 5 Sudoeste 13 Sudeste 0 -- -- 26
2019-03-25 12:00:00 19.4 10 Sudoeste 18 Sudoeste 0 -- -- 26
2019-03-25 11:00:00 16.8 6 Sudeste 12 Este 0 -- -- 30
2019-03-25 10:00:00 13.7 0 Calma 7 Este 0 -- -- 39
2019-03-25 09:00:00 8.6 2 Este 6 Sudeste 0 -- -- 52
2019-03-25 08:00:00 3.5 3 Norte 5 Norte 0 -- -- 70
2019-03-25 07:00:00 1.6 0 Calma 6 Norte 0 -- -- 73
2019-03-25 06:00:00 1.8 4 Norte 5 Noroeste 0 -- -- 73
2019-03-25 05:00:00 2.7 2 Noroeste 5 Norte 0 -- -- 70
2019-03-25 04:00:00 4.2 2 Norte 8 Norte 0 -- -- 65
2019-03-25 03:00:00 4.3 0 Calma 9 Norte 0 -- -- 66
2019-03-25 02:00:00 4.4 2 Norte 6 Norte 0 -- -- 67
2019-03-25 01:00:00 5.9 0 Calma 6 Norte 0 -- -- 62
2019-03-25 00:00:00 7.1 4 Norte 8 Norte 0 -- -- 59
2019-03-24 23:00:00 7.5 2 Noroeste 9 Norte 0 -- -- 59
2019-03-24 22:00:00 8.6 4 Norte 7 Noroeste 0 -- -- 56
2019-03-24 21:00:00 10.7 5 Noroeste 6 Sudeste 0 -- -- 51
2019-03-24 20:00:00 14.7 4 Sur 19 Sur 0 -- -- 43
2019-03-24 19:00:00 16.4 10 Sur 21 Sudeste 0 -- -- 40
2019-03-24 18:00:00 17.8 12 Sur 24 Sudeste 0 -- -- 37
2019-03-24 17:00:00 19.4 11 Sur 28 Sudeste 0 -- -- 33
2019-03-24 16:00:00 19.5 18 Sudeste 32 Sur 0 -- -- 32
2019-03-24 15:00:00 20 17 Sudeste 30 Sudeste 0 -- -- 32
2019-03-24 14:00:00 19.1 13 Sudeste 27 Sudeste 0 -- -- 35
2019-03-24 13:00:00 18.5 12 Sudeste 22 Sudeste 0 -- -- 36
2019-03-24 12:00:00 16.5 6 Sudeste 17 Sur 0 -- -- 47
2019-03-24 11:00:00 14.9 6 Este 13 Este 0 -- -- 51
2019-03-24 10:00:00 12.1 3 Este 7 Este 0 -- -- 60
2019-03-24 09:00:00 7.8 2 Este 5 Este 0 -- -- 74
2019-03-24 08:00:00 3.7 0 Calma 5 Norte 0 -- -- 90
2019-03-24 07:00:00 1.9 4 Norte 7 Norte 0 -- -- 90
2019-03-24 06:00:00 2.7 3 Norte 8 Norte 0 -- -- 89
2019-03-24 05:00:00 3.2 3 Norte 9 Norte 0 -- -- 88
2019-03-24 04:00:00 3 3 Norte 5 Noroeste 0 -- -- 90
2019-03-24 03:00:00 3.4 3 Norte 7 Noroeste 0 -- -- 87
2019-03-24 02:00:00 4 5 Noroeste 6 Noroeste 0 -- -- 86
2019-03-24 01:00:00 5 4 Norte 7 Noroeste 0 -- -- 86
2019-03-24 00:00:00 5.6 4 Norte 8 Noroeste 0 -- -- 82
2019-03-23 23:00:00 7.1 4 Noroeste 5 Este 0 -- -- 77
2019-03-23 22:00:00 10.8 3 Sudeste 16 Este 0 -- -- 69
2019-03-23 21:00:00 11.7 6 Este 17 Este 0 -- -- 66
2019-03-23 20:00:00 12.6 0 Calma 10 Sudoeste 0 -- -- 60
2019-03-23 19:00:00 13.9 6 Sudoeste 30 Sudeste 0 -- -- 55
2019-03-23 18:00:00 15.2 12 Sudeste 22 Sur 0 -- -- 51
2019-03-23 17:00:00 14.8 13 Sudeste 21 Sudeste 0 -- -- 52
2019-03-23 16:00:00 14.6 8 Sudeste 14 Sudeste 0 -- -- 52
2019-03-23 15:00:00 14 6 Este 13 Este 0 -- -- 56
2019-03-23 14:00:00 13.6 7 Sudeste 19 Sudeste 0 -- -- 58
2019-03-23 13:00:00 13.7 9 Sudeste 19 Sudeste 0 -- -- 59
2019-03-23 12:00:00 13 13 Este 21 Este 0 -- -- 60
2019-03-23 11:00:00 11.8 10 Este 19 Este 0 -- -- 67
2019-03-23 10:00:00 11.2 4 Sudeste 12 Sudeste 0 -- -- 68
2019-03-23 09:00:00 10.1 4 Sudeste 13 Este 0 -- -- 69
2019-03-23 08:00:00 9.2 6 Sudoeste 12 Sudeste 0 -- -- 68
2019-03-23 07:00:00 9.2 8 Sudeste 16 Este 0 -- -- 61
2019-03-23 06:00:00 9 2 Sur 11 Este 0 -- -- 57
2019-03-23 05:00:00 9.8 9 Este 17 Este 0 -- -- 52
2019-03-23 04:00:00 8.5 4 Este 9 Sudeste 0 -- -- 57
2019-03-23 03:00:00 7.3 3 Nordeste 7 Norte 0 -- -- 63
2019-03-23 02:00:00 6.7 3 Norte 8 Nordeste 0 -- -- 64
2019-03-23 01:00:00 6.9 2 Noroeste 8 Norte 0 -- -- 64
2019-03-23 00:00:00 8 4 Norte 9 Este 0 -- -- 63
2019-03-22 23:00:00 9.8 3 Norte 12 Sudeste 0 -- -- 58
2019-03-22 22:00:00 10.6 6 Sudeste 10 Sudeste 0 -- -- 57
2019-03-22 21:00:00 11.3 3 Sudoeste 13 Sudeste 0 -- -- 55
2019-03-22 20:00:00 13.1 9 Este 28 Este 0 -- -- 51
2019-03-22 19:00:00 14.7 15 Este 32 Este 0 -- -- 48
2019-03-22 18:00:00 15.9 19 Este 34 Este 0 -- -- 44
2019-03-22 17:00:00 16.4 20 Este 41 Este 0 -- -- 39
2019-03-22 16:00:00 16.7 23 Este 39 Este 0 -- -- 37
2019-03-22 15:00:00 16.6 22 Este 42 Nordeste 0 -- -- 37
2019-03-22 14:00:00 15.9 24 Este 46 Este 0 -- -- 37
2019-03-22 13:00:00 15.1 22 Este 34 Este 0 -- -- 37
2019-03-22 12:00:00 14.4 18 Este 35 Este 0 -- -- 37
2019-03-22 11:00:00 12.7 14 Este 25 Sudeste 0 -- -- 41
2019-03-22 10:00:00 10.1 10 Sudeste 17 Sudeste 0 -- -- 55
2019-03-22 09:00:00 7 4 Sudeste 8 Norte 0 -- -- 73
2019-03-22 08:00:00 4.1 5 Norte 11 Norte 0 -- -- 84
2019-03-22 07:00:00 2.9 5 Norte 13 Norte 0 -- -- 84
2019-03-22 06:00:00 3 8 Norte 13 Norte 0 -- -- 88
2019-03-22 05:00:00 2.2 3 Noroeste 8 Noroeste 0 -- -- 86
2019-03-22 04:00:00 2.1 5 Norte 8 Norte 0 -- -- 89
2019-03-22 03:00:00 1.6 3 Norte 6 Noroeste 0 -- -- 85
2019-03-22 02:00:00 3 3 Norte 8 Norte 0 -- -- 80
2019-03-22 01:00:00 4.6 5 Norte 8 Nordeste 0 -- -- 75
2019-03-22 00:00:00 6.4 6 Este 12 Este 0 -- -- 73
2019-03-21 23:00:00 7.1 6 Este 13 Nordeste 0 -- -- 65
2019-03-21 22:00:00 8.2 2 Nordeste 12 Nordeste 0 -- -- 53
2019-03-21 21:00:00 9.1 4 Nordeste 14 Este 0 -- -- 48
2019-03-21 20:00:00 10.3 9 Este 21 Este 0 -- -- 42
2019-03-21 19:00:00 11.8 14 Este 30 Este 0 -- -- 39
2019-03-21 18:00:00 12.8 18 Este 37 Este 0 -- -- 39
2019-03-21 17:00:00 14 18 Este 41 Este 0 -- -- 37
2019-03-21 16:00:00 14.3 22 Este 41 Este 0 -- -- 33
2019-03-21 15:00:00 14.9 19 Este 38 Este 0 -- -- 34
2019-03-21 14:00:00 14.1 21 Este 41 Este 0 -- -- 33
2019-03-21 13:00:00 13.9 20 Este 40 Este 0 -- -- 32
2019-03-21 12:00:00 13 19 Este 32 Este 0 -- -- 35
2019-03-21 11:00:00 11.5 6 Este 15 Este 0 -- -- 47
2019-03-21 10:00:00 9.2 6 Nordeste 12 Nordeste 0 -- -- 60
2019-03-21 09:00:00 6.5 4 Norte 8 Norte 0 -- -- 76
2019-03-21 08:00:00 1.8 2 Este 6 Noroeste 0 -- -- 92
2019-03-21 07:00:00 0.6 6 Norte 8 Noroeste 0 -- -- 92
2019-03-21 06:00:00 -0.3 0 Calma 6 Norte 0 -- -- 90
2019-03-21 05:00:00 0.3 0 Calma 4 Este 0 -- -- 90
2019-03-21 04:00:00 1 2 Este 5 Este 0 -- -- 89
2019-03-21 03:00:00 1.5 5 Norte 6 Norte 0 -- -- 88
2019-03-21 02:00:00 2.2 0 Calma 10 Noroeste 0 -- -- 82
2019-03-21 01:00:00 2.6 5 Noroeste 8 Noroeste 0 -- -- 78
2019-03-21 00:00:00 4 3 Oeste 8 Sudoeste 0 -- -- 69